createdAt,value
2018-08-23T00:01:20.079Z,24.9
2018-08-23T00:02:10.978Z,24.9
2018-08-23T00:03:00.169Z,24.9
2018-08-23T00:03:51.573Z,24.9
2018-08-23T00:04:40.912Z,24.9
2018-08-23T00:05:30.477Z,24.9
2018-08-23T00:06:20.332Z,24.9
2018-08-23T00:07:11.286Z,24.9
2018-08-23T00:08:01.479Z,24.9
2018-08-23T00:08:51.876Z,24.9
2018-08-23T00:09:41.504Z,24.9
2018-08-23T00:10:31.693Z,24.9
2018-08-23T00:11:21.610Z,24.9
2018-08-23T00:12:11.849Z,24.9
2018-08-23T00:31:28.376Z,24.9
2018-08-23T00:32:19.066Z,24.9
2018-08-23T00:33:08.531Z,24.9
2018-08-23T00:33:58.556Z,24.9
2018-08-23T00:34:49.006Z,24.9
2018-08-23T00:35:39.006Z,24.9
2018-08-23T00:36:28.486Z,24.9
2018-08-23T00:37:19.128Z,24.9
2018-08-23T00:38:08.082Z,24.9
2018-08-23T00:38:59.278Z,24.9
2018-08-23T00:39:49.620Z,24.9
2018-08-23T00:40:39.746Z,24.9
2018-08-23T00:41:29.198Z,24.9
2018-08-23T00:42:19.563Z,24.9
2018-08-23T00:43:09.543Z,24.9
2018-08-23T00:43:59.339Z,24.9
2018-08-23T00:44:47.685Z,24.9
2018-08-23T00:45:39.511Z,24.9
2018-08-23T00:46:29.631Z,24.9
2018-08-23T00:47:19.854Z,24.9
2018-08-23T00:48:09.951Z,24.9
2018-08-23T00:48:59.181Z,24.9
2018-08-23T00:49:49.794Z,24.9
2018-08-23T00:50:38.407Z,24.9
2018-08-23T00:51:29.038Z,24.9
2018-08-23T00:52:20.011Z,24.9
2018-08-23T00:53:10.697Z,24.9
2018-08-23T00:53:59.593Z,24.9
2018-08-23T00:54:50.820Z,24.9
2018-08-23T00:55:40.498Z,24.9
2018-08-23T00:56:30.015Z,24.9
2018-08-23T00:57:20.378Z,24.9
2018-08-23T00:58:10.418Z,24.9
2018-08-23T00:59:01.057Z,24.9
2018-08-23T00:59:51.093Z,24.9
2018-08-23T01:00:40.890Z,24.9
2018-08-23T01:01:31.271Z,24.9
2018-08-23T01:02:21.301Z,24.9
2018-08-23T01:03:10.812Z,24.9
2018-08-23T01:04:00.852Z,24.9
2018-08-23T01:04:51.482Z,24.9
2018-08-23T01:05:41.268Z,24.9
2018-08-23T01:06:31.607Z,24.9
2018-08-23T01:07:21.674Z,24.9
2018-08-23T01:08:11.224Z,24.9
2018-08-23T01:09:01.540Z,24.9
2018-08-23T01:09:51.877Z,24.9
2018-08-23T01:10:41.379Z,24.9
2018-08-23T01:11:31.792Z,24.9
2018-08-23T01:12:22.039Z,24.9
2018-08-23T01:13:12.113Z,24.9
2018-08-23T01:14:01.859Z,24.9
2018-08-23T01:14:51.425Z,24.9
2018-08-23T01:15:41.455Z,24.9
2018-08-23T01:16:31.809Z,24.9
2018-08-23T01:17:21.889Z,24.9
2018-08-23T01:18:10.526Z,24.9
2018-08-23T01:19:02.026Z,24.9
2018-08-23T01:19:52.703Z,24.9
2018-08-23T01:20:41.855Z,24.9
2018-08-23T01:21:32.807Z,24.9
2018-08-23T01:22:22.642Z,24.9
2018-08-23T01:23:12.972Z,24.9
2018-08-23T01:24:02.421Z,24.9
2018-08-23T01:24:52.509Z,24.9
2018-08-23T01:25:41.974Z,24.9
2018-08-23T01:26:32.898Z,24.9
2018-08-23T01:27:23.226Z,24.9
2018-08-23T01:28:13.040Z,24.9
2018-08-23T01:29:02.793Z,24.9
2018-08-23T01:29:52.273Z,24.9
2018-08-23T01:30:43.226Z,24.9
2018-08-23T01:31:33.310Z,24.9
2018-08-23T01:32:23.368Z,24.9
2018-08-23T01:33:13.716Z,24.9
2018-08-23T01:34:02.602Z,24.9
2018-08-23T01:34:53.521Z,24.9
2018-08-23T01:35:43.911Z,24.9
2018-08-23T01:36:33.913Z,24.9
2018-08-23T01:37:23.970Z,24.9
2018-08-23T01:38:13.498Z,24.9
2018-08-23T01:39:03.553Z,24.9
2018-08-23T01:39:53.852Z,24.9
2018-08-23T01:40:43.944Z,24.9
2018-08-23T01:41:34.038Z,24.9
2018-08-23T01:42:23.543Z,24.9
2018-08-23T01:43:14.433Z,24.9
2018-08-23T01:44:04.462Z,24.9
2018-08-23T01:44:53.965Z,24.9
2018-08-23T01:45:43.466Z,24.9
2018-08-23T01:46:33.804Z,24.9
2018-08-23T01:47:24.123Z,24.9
2018-08-23T01:48:14.507Z,24.9
2018-08-23T01:49:04.315Z,24.9
2018-08-23T01:49:54.630Z,24.9
2018-08-23T01:50:44.107Z,24.9
2018-08-23T01:51:34.298Z,24.9
2018-08-23T01:52:25.117Z,24.9
2018-08-23T01:53:14.343Z,24.9
2018-08-23T01:54:04.772Z,24.9
2018-08-23T01:54:55.315Z,24.9
2018-08-23T01:55:44.367Z,24.9
2018-08-23T01:56:34.693Z,24.9
2018-08-23T01:57:24.137Z,24.9
2018-08-23T01:58:14.999Z,24.9
2018-08-23T01:59:05.484Z,24.9
2018-08-23T01:59:54.561Z,24.9
2018-08-23T02:00:44.962Z,24.9
2018-08-23T02:01:34.986Z,24.9
2018-08-23T02:02:25.621Z,24.9
2018-08-23T02:03:15.776Z,24.9
2018-08-23T02:04:05.204Z,24.9
2018-08-23T02:04:55.273Z,24.9
2018-08-23T02:05:45.624Z,24.9
2018-08-23T02:06:34.796Z,24.9
2018-08-23T02:07:25.184Z,24.9
2018-08-23T02:08:16.380Z,24.9
2018-08-23T02:09:05.296Z,24.9
2018-08-23T02:09:56.199Z,24.9
2018-08-23T02:10:46.511Z,24.9
2018-08-23T02:11:36.311Z,24.9
2018-08-23T02:12:26.614Z,24.9
2018-08-23T02:13:16.755Z,24.9
2018-08-23T02:14:05.916Z,24.9
2018-08-23T02:14:56.857Z,24.9
2018-08-23T02:15:46.361Z,24.9
2018-08-23T02:16:36.147Z,24.9
2018-08-23T02:17:27.033Z,24.9
2018-08-23T02:18:16.821Z,24.9
2018-08-23T02:19:06.450Z,24.9
2018-08-23T02:19:56.220Z,24.9
2018-08-23T02:20:47.033Z,24.9
2018-08-23T02:21:37.326Z,24.9
2018-08-23T02:22:26.655Z,24.9
2018-08-23T02:23:17.188Z,24.9
2018-08-23T02:24:07.288Z,24.9
2018-08-23T02:24:57.165Z,24.9
2018-08-23T02:25:46.603Z,24.9
2018-08-23T02:26:36.968Z,24.9
2018-08-23T02:27:25.808Z,24.9
2018-08-23T02:28:17.040Z,24.9
2018-08-23T02:29:06.628Z,24.9
2018-08-23T02:29:57.828Z,24.9
2018-08-23T02:30:47.551Z,24.9
2018-08-23T02:31:37.606Z,24.9
2018-08-23T02:32:27.340Z,24.9
2018-08-23T02:33:17.728Z,24.9
2018-08-23T02:34:08.341Z,24.9
2018-08-23T02:34:57.600Z,24.9
2018-08-23T02:35:48.183Z,24.9
2018-08-23T02:36:38.227Z,24.9
2018-08-23T02:37:28.013Z,24.9
2018-08-23T02:38:19.287Z,24.9
2018-08-23T02:39:07.876Z,25
2018-08-23T02:39:58.248Z,25
2018-08-23T02:40:48.304Z,24.9
2018-08-23T02:41:38.915Z,24.9
2018-08-23T02:42:28.708Z,25
2018-08-23T02:43:18.912Z,25
2018-08-23T02:44:07.774Z,25
2018-08-23T02:44:58.147Z,25
2018-08-23T02:45:48.726Z,25
2018-08-23T02:46:39.025Z,24.9
2018-08-23T02:47:29.368Z,24.9
2018-08-23T02:48:19.422Z,25
2018-08-23T02:49:09.542Z,25
2018-08-23T02:49:59.254Z,25
2018-08-23T02:50:49.624Z,25
2018-08-23T02:51:39.407Z,25
2018-08-23T02:52:29.119Z,25
2018-08-23T02:53:18.959Z,25
2018-08-23T02:54:09.544Z,25
2018-08-23T02:54:59.639Z,25
2018-08-23T02:55:49.705Z,25
2018-08-23T02:56:40.077Z,25
2018-08-23T02:57:28.972Z,25
2018-08-23T02:58:19.905Z,25
2018-08-23T02:59:10.037Z,25
2018-08-23T03:00:00.051Z,25
2018-08-23T03:00:48.999Z,25
2018-08-23T03:01:40.510Z,25
2018-08-23T03:02:30.223Z,25
2018-08-23T03:03:20.354Z,25
2018-08-23T03:04:10.691Z,25
2018-08-23T03:04:59.630Z,25
2018-08-23T03:05:49.676Z,25
2018-08-23T03:06:40.898Z,25
2018-08-23T03:07:30.456Z,25
2018-08-23T03:08:20.449Z,25
2018-08-23T03:09:10.769Z,25
2018-08-23T03:10:00.564Z,25
2018-08-23T03:10:50.604Z,25
2018-08-23T03:11:41.240Z,25
2018-08-23T03:12:31.021Z,25
2018-08-23T03:13:20.855Z,25
2018-08-23T03:14:11.403Z,25
2018-08-23T03:15:01.211Z,25
2018-08-23T03:15:51.283Z,25
2018-08-23T03:16:41.625Z,25
2018-08-23T03:17:31.143Z,25
2018-08-23T03:18:21.465Z,25
2018-08-23T03:19:11.256Z,25.1
2018-08-23T03:20:01.686Z,25
2018-08-23T03:20:51.643Z,25.1
2018-08-23T03:21:41.983Z,25
2018-08-23T03:22:31.471Z,25
2018-08-23T03:23:21.850Z,25
2018-08-23T03:24:11.870Z,25
2018-08-23T03:25:01.990Z,25
2018-08-23T03:25:52.073Z,25
2018-08-23T03:26:42.400Z,25.1
2018-08-23T03:27:31.593Z,25
2018-08-23T03:28:21.944Z,25
2018-08-23T03:29:12.275Z,25.1
2018-08-23T03:30:02.063Z,25.1
2018-08-23T03:30:52.517Z,25.1
2018-08-23T03:31:42.222Z,25.1
2018-08-23T03:32:32.035Z,25
2018-08-23T03:33:22.338Z,25.1
2018-08-23T03:34:13.000Z,25
2018-08-23T03:35:01.900Z,25.1
2018-08-23T03:35:52.815Z,25.1
2018-08-23T03:36:42.842Z,25.1
2018-08-23T03:37:32.707Z,25.1
2018-08-23T03:38:23.287Z,25.1
2018-08-23T03:39:13.277Z,25
2018-08-23T03:40:03.254Z,25
2018-08-23T03:40:53.212Z,25.1
2018-08-23T03:41:43.024Z,25.1
2018-08-23T03:42:33.067Z,25.1
2018-08-23T03:43:23.615Z,25.1
2018-08-23T03:44:12.300Z,25.1
2018-08-23T03:45:03.270Z,25.1
2018-08-23T03:45:53.656Z,25.1
2018-08-23T03:46:43.892Z,25.1
2018-08-23T03:47:33.125Z,25.1
2018-08-23T03:48:24.071Z,25
2018-08-23T03:49:13.830Z,25.1
2018-08-23T03:50:02.494Z,25.1
2018-08-23T03:50:53.401Z,25.1
2018-08-23T03:51:43.521Z,25.1
2018-08-23T03:52:33.865Z,25.1
2018-08-23T03:53:23.579Z,25.1
2018-08-23T03:54:14.239Z,25.1
2018-08-23T03:55:03.496Z,25.1
2018-08-23T03:55:54.621Z,25.1
2018-08-23T03:56:43.814Z,25
2018-08-23T03:57:34.496Z,25.1
2018-08-23T03:58:23.975Z,25.1
2018-08-23T03:59:14.577Z,25.1
2018-08-23T04:00:05.006Z,25.1
2018-08-23T04:00:55.033Z,25.1
2018-08-23T04:01:45.253Z,25.1
2018-08-23T04:02:34.567Z,25.1
2018-08-23T04:03:24.623Z,25.1
2018-08-23T04:04:14.704Z,25.1
2018-08-23T04:05:04.484Z,25.1
2018-08-23T04:05:55.137Z,25.1
2018-08-23T04:06:44.914Z,25.1
2018-08-23T04:07:34.683Z,25.1
2018-08-23T04:08:25.580Z,25.1
2018-08-23T04:09:14.769Z,25.1
2018-08-23T04:10:05.708Z,25.1
2018-08-23T04:10:54.920Z,25.1
2018-08-23T04:11:45.557Z,25.1
2018-08-23T04:12:35.067Z,25.1
2018-08-23T04:13:25.972Z,25.1
2018-08-23T04:14:15.543Z,25.1
2018-08-23T04:15:05.289Z,25.1
2018-08-23T04:15:55.622Z,25.1
2018-08-23T04:16:45.720Z,25.1
2018-08-23T04:17:35.452Z,25.1
2018-08-23T04:18:26.094Z,25.1
2018-08-23T04:19:16.149Z,25.1
2018-08-23T04:20:06.535Z,25.1
2018-08-23T04:20:56.600Z,25.1
2018-08-23T04:21:46.393Z,25.1
2018-08-23T04:22:36.430Z,25.1
2018-08-23T04:23:26.208Z,25.1
2018-08-23T04:24:16.267Z,25.1
2018-08-23T04:25:06.660Z,25.1
2018-08-23T04:25:56.681Z,25.1
2018-08-23T04:26:47.011Z,25.1
2018-08-23T04:27:36.817Z,25.1
2018-08-23T04:28:26.631Z,25.1
2018-08-23T04:29:16.896Z,25.1
2018-08-23T04:30:06.117Z,25.1
2018-08-23T04:30:56.781Z,25.1
2018-08-23T04:31:47.136Z,25.1
2018-08-23T04:32:36.927Z,25.1
2018-08-23T04:33:27.236Z,25.1
2018-08-23T04:34:16.439Z,25.1
2018-08-23T04:35:07.346Z,25.1
2018-08-23T04:35:57.701Z,25.1
2018-08-23T04:36:47.226Z,25.1
2018-08-23T04:37:37.536Z,25.1
2018-08-23T04:38:27.405Z,25.1
2018-08-23T04:39:17.946Z,25.1
2018-08-23T04:40:07.190Z,25.1
2018-08-23T04:40:57.831Z,25.1
2018-08-23T04:41:48.168Z,25.1
2018-08-23T04:42:37.091Z,25.1
2018-08-23T05:00:34.320Z,25.1
2018-08-23T05:01:25.280Z,25.1
2018-08-23T05:02:14.527Z,25.1
2018-08-23T05:03:04.799Z,25.1
2018-08-23T05:03:55.473Z,25.1
2018-08-23T05:04:45.491Z,25.1
2018-08-23T05:05:35.559Z,25.1
2018-08-23T05:06:25.125Z,25.1
2018-08-23T05:07:15.411Z,25.1
2018-08-23T05:08:05.714Z,25.1
2018-08-23T05:08:55.776Z,25.1
2018-08-23T05:09:45.846Z,25.1
2018-08-23T05:10:35.259Z,25.1
2018-08-23T05:11:25.475Z,25.1
2018-08-23T05:12:16.052Z,25.1
2018-08-23T05:13:06.158Z,25.1
2018-08-23T05:13:55.883Z,25.1
2018-08-23T05:14:45.932Z,25.1
2018-08-23T05:15:35.497Z,25.1
2018-08-23T05:16:25.539Z,25.1
2018-08-23T05:17:15.114Z,25.1
2018-08-23T05:18:05.664Z,25.1
2018-08-23T05:18:55.835Z,25.1
2018-08-23T05:19:46.146Z,25.1
2018-08-23T05:20:36.449Z,25.1
2018-08-23T05:21:25.659Z,25.1
2018-08-23T05:22:16.504Z,25.1
2018-08-23T05:23:07.218Z,25.1
2018-08-23T05:23:56.709Z,25.1
2018-08-23T05:24:47.020Z,25.1
2018-08-23T05:25:37.088Z,25.1
2018-08-23T05:26:26.606Z,25.1
2018-08-23T05:27:17.220Z,25.1
2018-08-23T05:28:06.986Z,25.1
2018-08-23T05:28:57.330Z,25.1
2018-08-23T05:29:48.055Z,25.1
2018-08-23T05:30:37.244Z,25.1
2018-08-23T05:31:27.242Z,25.1
2018-08-23T05:32:17.292Z,25.1
2018-08-23T05:33:07.684Z,25.1
2018-08-23T05:33:57.407Z,25.1
2018-08-23T05:34:47.527Z,25.1
2018-08-23T05:35:37.313Z,25.1
2018-08-23T05:36:27.658Z,25.1
2018-08-23T05:37:17.440Z,25.1
2018-08-23T05:38:08.020Z,25.1
2018-08-23T05:38:57.645Z,25.1
2018-08-23T05:39:47.881Z,25.1
2018-08-23T05:40:37.953Z,24.9
2018-08-23T05:41:27.450Z,28.4
2018-08-23T05:42:17.495Z,28.8
2018-08-23T05:43:08.090Z,30.8
2018-08-23T05:43:58.186Z,31.9
2018-08-23T05:44:48.243Z,31.9
2018-08-23T05:45:38.321Z,31.6
2018-08-23T05:46:29.110Z,30.6
2018-08-23T05:47:18.227Z,29.1
2018-08-23T05:48:08.373Z,28
2018-08-23T05:48:58.647Z,27.4
2018-08-23T05:49:48.652Z,27.2
2018-08-23T05:50:38.527Z,27
2018-08-23T05:51:28.777Z,26.9
2018-08-23T05:52:18.857Z,26.8
2018-08-23T05:53:08.629Z,26.8
2018-08-23T05:53:58.999Z,26.8
2018-08-23T05:54:48.799Z,26.7
2018-08-23T05:55:38.846Z,26.8
2018-08-23T05:56:28.752Z,29.9
2018-08-23T05:57:19.528Z,30.9
2018-08-23T05:58:09.067Z,32.7
2018-08-23T05:58:59.106Z,33.3
2018-08-23T05:59:49.759Z,33.4
2018-08-23T06:00:39.270Z,33.3
2018-08-23T06:01:29.867Z,33.1
2018-08-23T06:02:19.907Z,33.1
2018-08-23T06:03:09.731Z,33.3
2018-08-23T06:03:59.192Z,33.5
2018-08-23T06:04:49.839Z,33.7
2018-08-23T06:05:39.904Z,33.9
2018-08-23T06:06:29.934Z,34
2018-08-23T06:07:20.342Z,34.1
2018-08-23T06:08:09.174Z,34.1
2018-08-23T06:09:00.416Z,34.3
2018-08-23T06:09:50.160Z,34.4
2018-08-23T06:10:40.502Z,34.5
2018-08-23T06:11:30.099Z,34.6
2018-08-23T06:12:20.126Z,34.8
2018-08-23T06:13:10.196Z,34.9
2018-08-23T06:14:00.658Z,35
2018-08-23T06:14:50.895Z,35.1
2018-08-23T06:15:40.917Z,35.1
2018-08-23T06:16:30.979Z,35
2018-08-23T06:17:20.219Z,34.9
2018-08-23T06:18:11.085Z,35.1
2018-08-23T06:19:00.891Z,35.2
2018-08-23T06:19:51.439Z,35.4
2018-08-23T06:20:41.288Z,35.5
2018-08-23T06:21:30.857Z,35.7
2018-08-23T06:22:21.516Z,35.8
2018-08-23T06:23:10.946Z,35.9
2018-08-23T06:24:00.109Z,35.9
2018-08-23T06:24:50.260Z,36.1
2018-08-23T06:25:40.478Z,36.2
2018-08-23T06:26:30.489Z,36.4
2018-08-23T06:27:19.980Z,36.4
2018-08-23T06:28:11.402Z,36.6
2018-08-23T06:29:00.200Z,36.7
2018-08-23T06:29:50.742Z,36.8
2018-08-23T06:30:39.963Z,36.9
2018-08-23T06:31:30.396Z,37.1
2018-08-23T06:32:19.885Z,37.2
2018-08-23T06:33:11.593Z,37.3
2018-08-23T06:34:02.187Z,37.4
2018-08-23T06:34:51.150Z,37.6
2018-08-23T06:35:40.890Z,37.7
2018-08-23T06:36:31.104Z,37.8
2018-08-23T06:37:21.163Z,37.9
2018-08-23T06:38:10.803Z,38.1
2018-08-23T06:39:01.343Z,38.2
2018-08-23T06:39:51.521Z,38.3
2018-08-23T06:40:41.810Z,38.4
2018-08-23T06:41:31.547Z,38.6
2018-08-23T06:42:22.482Z,38.7
2018-08-23T06:43:12.070Z,38.8
2018-08-23T06:44:01.941Z,38.9
2018-08-23T06:44:52.126Z,39
2018-08-23T06:45:41.742Z,39.1
2018-08-23T06:46:32.246Z,39.3
2018-08-23T06:47:22.180Z,39.4
2018-08-23T06:48:11.942Z,39.5
2018-08-23T06:49:02.443Z,39.6
2018-08-23T06:49:51.772Z,39.8
2018-08-23T06:50:41.449Z,39.9
2018-08-23T06:51:32.469Z,40
2018-08-23T06:52:22.032Z,40.1
2018-08-23T06:53:13.207Z,40.3
2018-08-23T06:54:02.727Z,40.4
2018-08-23T06:54:52.434Z,40.5
2018-08-23T06:55:42.928Z,40.6
2018-08-23T06:56:33.146Z,40.8
2018-08-23T06:57:22.614Z,40.9
2018-08-23T06:58:13.284Z,41
2018-08-23T06:59:03.289Z,41.1
2018-08-23T06:59:52.926Z,41.3
2018-08-23T07:00:43.244Z,41.4
2018-08-23T07:01:33.492Z,41.5
2018-08-23T07:02:23.156Z,41.6
2018-08-23T07:03:13.467Z,41.8
2018-08-23T07:04:04.156Z,41.9
2018-08-23T07:04:54.144Z,42
2018-08-23T07:05:42.866Z,42.1
2018-08-23T07:06:33.772Z,42.3
2018-08-23T07:07:23.544Z,42.4
2018-08-23T07:08:14.230Z,42.4
2018-08-23T07:09:03.702Z,42.6
2018-08-23T07:09:53.683Z,42.8
2018-08-23T07:10:44.949Z,42.9
2018-08-23T07:11:33.468Z,43
2018-08-23T07:12:23.985Z,43.1
2018-08-23T07:13:14.312Z,43.3
2018-08-23T07:14:04.010Z,43.4
2018-08-23T07:14:54.584Z,43.5
2018-08-23T07:15:43.790Z,43.6
2018-08-23T07:16:34.285Z,43.8
2018-08-23T07:17:24.333Z,43.9
2018-08-23T07:18:14.624Z,44
2018-08-23T07:19:04.153Z,44.1
2018-08-23T07:19:54.576Z,44.3
2018-08-23T07:20:44.486Z,44.4
2018-08-23T07:21:34.357Z,44.6
2018-08-23T07:22:24.568Z,44.7
2018-08-23T07:23:13.311Z,44.8
2018-08-23T07:24:04.089Z,44.9
2018-08-23T07:24:54.735Z,45.1
2018-08-23T07:25:44.883Z,45.3
2018-08-23T07:26:35.727Z,45.3
2018-08-23T07:27:25.231Z,45.5
2018-08-23T07:28:15.582Z,45.6
2018-08-23T07:29:05.664Z,45.8
2018-08-23T07:29:58.201Z,45.9
2018-08-23T07:30:45.842Z,46.1
2018-08-23T07:31:37.218Z,46.1
2018-08-23T07:32:26.339Z,46.2
2018-08-23T07:33:17.749Z,46.3
2018-08-23T07:34:06.995Z,46.5
2018-08-23T07:34:56.815Z,46.6
2018-08-23T07:35:47.253Z,46.8
2018-08-23T07:36:36.314Z,46.9
2018-08-23T07:37:25.941Z,47.1
2018-08-23T07:38:17.080Z,47.2
2018-08-23T07:39:07.455Z,47.3
2018-08-23T07:39:57.646Z,47.5
2018-08-23T07:40:47.564Z,47.6
2018-08-23T07:41:37.375Z,47.8
2018-08-23T07:42:27.169Z,47.9
2018-08-23T07:43:17.379Z,48.1
2018-08-23T07:44:07.264Z,48.2
2018-08-23T07:44:57.622Z,48.3
2018-08-23T07:45:48.004Z,48.4
2018-08-23T07:46:37.212Z,48.6
2018-08-23T07:47:27.824Z,48.8
2018-08-23T07:48:17.339Z,48.9
2018-08-23T07:49:07.707Z,49
2018-08-23T07:49:58.437Z,49.1
2018-08-23T07:50:47.821Z,49.3
2018-08-23T07:51:38.439Z,49.4
2018-08-23T07:52:28.910Z,49.6
2018-08-23T07:53:19.843Z,49.7
2018-08-23T07:54:08.303Z,49.8
2018-08-23T07:54:57.898Z,49.9
2018-08-23T07:55:48.728Z,50.1
2018-08-23T07:56:38.604Z,50.3
2018-08-23T07:57:28.591Z,50.3
2018-08-23T07:58:18.703Z,50.5
2018-08-23T07:59:08.973Z,50.6
2018-08-23T07:59:58.774Z,50.8
2018-08-23T08:00:48.869Z,50.9
2018-08-23T08:01:38.834Z,51.1
2018-08-23T08:02:28.938Z,51.2
2018-08-23T08:03:19.028Z,51.3
2018-08-23T08:04:09.185Z,51.3
2018-08-23T08:04:58.988Z,51.3
2018-08-23T08:05:49.655Z,51.4
2018-08-23T08:06:38.719Z,51.6
2018-08-23T08:07:29.669Z,51.8
2018-08-23T08:08:19.421Z,51.9
2018-08-23T08:09:09.480Z,52
2018-08-23T08:09:59.545Z,52.1
2018-08-23T08:10:49.928Z,52.3
2018-08-23T08:11:39.968Z,52.4
2018-08-23T08:12:29.737Z,52.6
2018-08-23T08:13:19.837Z,52.7
2018-08-23T08:14:10.209Z,52.8
2018-08-23T08:15:01.252Z,52.9
2018-08-23T08:15:50.014Z,53.1
2018-08-23T08:16:40.081Z,53.3
2018-08-23T08:17:30.462Z,53.4
2018-08-23T08:18:19.965Z,53.5
2018-08-23T08:19:10.279Z,53.6
2018-08-23T08:20:00.348Z,53.8
2018-08-23T08:20:50.894Z,53.9
2018-08-23T08:21:40.732Z,54
2018-08-23T08:22:30.853Z,54.1
2018-08-23T08:23:20.660Z,54.3
2018-08-23T08:24:10.123Z,54.4
2018-08-23T08:25:01.038Z,54.5
2018-08-23T08:25:51.124Z,54.6
2018-08-23T08:26:40.597Z,54.8
2018-08-23T08:27:30.667Z,54.9
2018-08-23T08:28:21.056Z,55
2018-08-23T08:29:11.491Z,55.1
2018-08-23T08:30:01.503Z,55.3
2018-08-23T08:30:50.831Z,55.3
2018-08-23T08:31:41.288Z,55.4
2018-08-23T08:32:31.791Z,55.5
2018-08-23T08:33:22.249Z,55.6
2018-08-23T08:34:11.191Z,55.8
2018-08-23T08:35:01.599Z,55.9
2018-08-23T08:35:51.046Z,56
2018-08-23T08:36:41.834Z,56.1
2018-08-23T08:37:32.203Z,56.3
2018-08-23T08:38:21.817Z,56.3
2018-08-23T08:39:11.924Z,56.4
2018-08-23T08:40:02.205Z,56.6
2018-08-23T08:40:52.273Z,56.6
2018-08-23T08:41:41.973Z,56.8
2018-08-23T08:42:32.608Z,56.9
2018-08-23T08:43:22.112Z,56.9
2018-08-23T08:44:12.588Z,57.1
2018-08-23T08:45:02.205Z,57.1
2018-08-23T08:45:52.636Z,57.3
2018-08-23T08:46:43.005Z,57.4
2018-08-23T08:47:32.787Z,57.5
2018-08-23T08:48:21.912Z,57.6
2018-08-23T08:49:12.255Z,57.7
2018-08-23T08:50:53.573Z,57.9
2018-08-23T08:51:42.715Z,57.9
2018-08-23T08:52:33.171Z,58.1
2018-08-23T08:53:22.946Z,58.2
2018-08-23T08:54:13.278Z,58.3
2018-08-23T08:55:03.124Z,58.3
2018-08-23T08:55:52.711Z,58.4
2018-08-23T08:57:33.769Z,58.6
2018-08-23T08:58:23.680Z,58.7
2018-08-23T09:15:02.120Z,60.1
2018-08-23T09:15:51.882Z,60.3
2018-08-23T09:16:42.308Z,60.3
2018-08-23T09:17:32.076Z,60.3
2018-08-23T09:18:22.367Z,60.4
2018-08-23T09:19:11.929Z,60.4
2018-08-23T09:20:02.498Z,60.5
2018-08-23T09:20:53.081Z,60.5
2018-08-23T09:21:42.348Z,60.6
2018-08-23T09:22:32.524Z,60.6
2018-08-23T09:23:22.440Z,60.8
2018-08-23T09:24:12.009Z,60.8
2018-08-23T09:25:02.611Z,60.8
2018-08-23T09:25:52.654Z,60.9
2018-08-23T09:26:42.785Z,61
2018-08-23T09:27:32.855Z,61.1
2018-08-23T09:28:22.134Z,61.1
2018-08-23T09:29:12.516Z,61.1
2018-08-23T09:30:03.400Z,61.2
2018-08-23T09:30:52.807Z,61.3
2018-08-23T09:31:43.463Z,61.4
2018-08-23T09:32:33.530Z,61.4
2018-08-23T09:33:23.003Z,61.4
2018-08-23T09:34:13.641Z,61.5
2018-08-23T09:35:04.094Z,61.5
2018-08-23T09:35:52.776Z,61.6
2018-08-23T09:36:43.840Z,61.6
2018-08-23T09:37:33.606Z,61.6
2018-08-23T09:38:23.464Z,61.5
2018-08-23T09:39:13.489Z,61.5
2018-08-23T09:40:04.099Z,61.6
2018-08-23T09:40:54.163Z,61.7
2018-08-23T09:41:43.896Z,61.8
2018-08-23T09:42:33.666Z,61.9
2018-08-23T09:43:24.089Z,61.9
2018-08-23T09:44:13.827Z,62
2018-08-23T09:45:04.488Z,62.1
2018-08-23T09:45:54.046Z,62.1
2018-08-23T09:46:44.008Z,62.3
2018-08-23T09:47:33.825Z,62.3
2018-08-23T09:48:23.904Z,62.2
2018-08-23T09:49:14.197Z,62.2
2018-08-23T09:50:04.775Z,62.3
2018-08-23T09:50:56.342Z,62.4
2018-08-23T09:51:44.763Z,62.6
2018-08-23T09:52:34.750Z,62.6
2018-08-23T09:53:25.121Z,62.7
2018-08-23T09:54:14.370Z,62.8
2018-08-23T09:55:04.966Z,62.8
2018-08-23T09:55:54.523Z,62.8
2018-08-23T09:56:46.376Z,62.8
2018-08-23T09:57:34.854Z,62.9
2018-08-23T09:58:25.528Z,62.9
2018-08-23T09:59:15.306Z,63
2018-08-23T10:00:05.103Z,63
2018-08-23T10:00:55.435Z,63
2018-08-23T10:01:45.205Z,63.1
2018-08-23T10:02:35.351Z,63.2
2018-08-23T10:03:25.969Z,63.2
2018-08-23T10:04:16.636Z,63.1
2018-08-23T10:05:06.090Z,63.1
2018-08-23T10:05:55.726Z,63.3
2018-08-23T10:06:45.415Z,63.4
2018-08-23T10:07:35.713Z,63.4
2018-08-23T10:08:26.331Z,63.4
2018-08-23T10:09:16.076Z,63.5
2018-08-23T10:10:06.433Z,63.6
2018-08-23T10:10:56.203Z,63.8
2018-08-23T10:11:47.282Z,63.7
2018-08-23T10:12:36.149Z,63.6
2018-08-23T10:13:26.423Z,63.5
2018-08-23T10:14:16.462Z,63.6
2018-08-23T10:15:06.248Z,63.8
2018-08-23T10:15:56.027Z,63.9
2018-08-23T10:16:46.468Z,64
2018-08-23T10:17:37.022Z,64.1
2018-08-23T10:18:25.362Z,64.1
2018-08-23T10:19:17.086Z,64.1
2018-08-23T10:20:06.992Z,64.1
2018-08-23T10:20:56.511Z,64.3
2018-08-23T10:21:47.374Z,64.3
2018-08-23T10:22:37.397Z,64.3
2018-08-23T10:23:27.451Z,64.3
2018-08-23T10:24:17.252Z,64.4
2018-08-23T10:25:07.606Z,64.4
2018-08-23T10:25:57.633Z,64.4
2018-08-23T10:26:48.333Z,64.3
2018-08-23T10:27:37.975Z,64.4
2018-08-23T10:28:27.295Z,64.5
2018-08-23T10:29:17.934Z,64.6
2018-08-23T10:30:07.986Z,64.6
2018-08-23T10:30:57.855Z,64.7
2018-08-23T10:31:47.635Z,64.8
2018-08-23T10:32:38.248Z,64.8
2018-08-23T10:33:28.348Z,64.8
2018-08-23T10:34:18.414Z,64.9
2018-08-23T10:35:07.879Z,64.9
2018-08-23T10:35:58.309Z,65
2018-08-23T10:36:48.028Z,65.1
2018-08-23T10:37:38.695Z,65.1
2018-08-23T10:38:28.180Z,65.2
2018-08-23T10:39:18.543Z,65.3
2018-08-23T10:40:08.813Z,65.3
2018-08-23T10:40:58.365Z,65.4
2018-08-23T10:41:48.117Z,65.4
2018-08-23T10:42:38.432Z,65.4
2018-08-23T10:43:28.477Z,65.5
2018-08-23T10:44:18.866Z,65.6
2018-08-23T10:45:08.355Z,65.6
2018-08-23T10:45:58.404Z,65.6
2018-08-23T10:46:48.770Z,65.6
2018-08-23T10:47:39.127Z,65.7
2018-08-23T10:48:29.230Z,65.6
2018-08-23T10:49:19.269Z,65.7
2018-08-23T10:50:09.295Z,65.8
2018-08-23T10:50:59.149Z,65.8
2018-08-23T10:51:49.194Z,65.9
2018-08-23T10:52:39.771Z,66
2018-08-23T10:53:29.805Z,66.1
2018-08-23T10:54:19.906Z,66
2018-08-23T10:55:09.948Z,65.8
2018-08-23T10:56:00.052Z,65.8
2018-08-23T10:56:50.080Z,65.8
2018-08-23T10:57:39.849Z,65.9
2018-08-23T10:58:30.234Z,66.1
2018-08-23T10:59:20.309Z,66
2018-08-23T11:00:10.318Z,66.1
2018-08-23T11:01:00.446Z,66.1
2018-08-23T11:01:49.948Z,66.1
2018-08-23T11:02:40.518Z,66.2
2018-08-23T11:03:30.414Z,66.3
2018-08-23T11:04:20.428Z,66.3
2018-08-23T11:05:10.431Z,66.4
2018-08-23T11:06:00.520Z,66.4
2018-08-23T11:06:50.399Z,66.4
2018-08-23T11:07:40.688Z,66.4
2018-08-23T11:08:30.960Z,66.4
2018-08-23T11:09:21.101Z,66.5
2018-08-23T11:10:11.143Z,66.5
2018-08-23T11:11:00.959Z,66.6
2018-08-23T11:11:51.158Z,66.6
2018-08-23T11:12:41.339Z,66.7
2018-08-23T11:13:31.216Z,66.7
2018-08-23T11:14:21.198Z,66.8
2018-08-23T11:15:11.093Z,66.8
2018-08-23T11:16:01.300Z,66.8
2018-08-23T11:16:52.548Z,66.9
2018-08-23T11:17:41.734Z,67
2018-08-23T11:18:31.517Z,67
2018-08-23T11:19:21.878Z,67
2018-08-23T11:20:11.487Z,67.1
2018-08-23T11:21:01.730Z,67.1
2018-08-23T11:21:51.995Z,67.1
2018-08-23T11:22:41.813Z,67.1
2018-08-23T11:23:31.944Z,67.2
2018-08-23T11:24:22.352Z,67.2
2018-08-23T11:25:12.039Z,67.3
2018-08-23T11:26:02.109Z,67.3
2018-08-23T11:26:52.144Z,67.3
2018-08-23T11:27:42.519Z,67.4
2018-08-23T11:28:31.777Z,67.4
2018-08-23T11:29:22.124Z,67.4
2018-08-23T11:30:12.692Z,67.4
2018-08-23T11:31:02.177Z,67.5
2018-08-23T11:31:52.801Z,67.6
2018-08-23T11:32:42.880Z,67.6
2018-08-23T11:33:32.991Z,67.6
2018-08-23T11:34:22.460Z,67.6
2018-08-23T11:35:13.982Z,67.6
2018-08-23T11:36:03.199Z,67.7
2018-08-23T11:36:52.677Z,67.8
2018-08-23T11:37:42.752Z,67.8
2018-08-23T11:38:32.809Z,67.8
2018-08-23T11:39:23.475Z,67.8
2018-08-23T11:40:13.535Z,67.8
2018-08-23T11:41:03.071Z,67.6
2018-08-23T11:41:53.417Z,67.5
2018-08-23T11:42:44.501Z,67.4
2018-08-23T11:43:33.510Z,67.5
2018-08-23T11:44:23.542Z,67.6
2018-08-23T11:45:13.649Z,67.6
2018-08-23T11:46:04.055Z,67.6
2018-08-23T11:46:53.796Z,67.6
2018-08-23T11:47:44.110Z,67.6
2018-08-23T11:48:34.207Z,67.6
2018-08-23T11:49:24.254Z,67.7
2018-08-23T11:50:14.321Z,67.6
2018-08-23T11:51:03.294Z,67.7
2018-08-23T11:51:53.875Z,67.8
2018-08-23T11:52:43.736Z,67.8
2018-08-23T11:53:38.223Z,67.8
2018-08-23T11:54:23.794Z,67.8
2018-08-23T11:55:14.455Z,67.9
2018-08-23T11:56:04.803Z,67.9
2018-08-23T11:56:54.583Z,67.9
2018-08-23T11:57:44.321Z,67.9
2018-08-23T11:58:35.122Z,67.9
2018-08-23T11:59:24.549Z,68
2018-08-23T12:00:14.825Z,68
2018-08-23T12:01:05.233Z,68.1
2018-08-23T12:01:55.399Z,68.1
2018-08-23T12:02:44.503Z,68.1
2018-08-23T12:03:35.128Z,68.1
2018-08-23T12:04:25.149Z,68.1
2018-08-23T12:05:14.875Z,68.1